Terminal Aerodrome Forecast
Issued by NWS

Home | Current Version | Previous Version | Text Only | Print | Product List | Glossary On
Versions: 1 2 3 4 5 6 7 8 9 10 11 12 13
000
FTUS42 KMLB 241700
TAFSFB
TAF
KSFB 241736Z 2418/2518 22004KT P6SM VCSH SCT035
      TEMPO 2418/2420 BKN035
     FM242000 21007KT P6SM VCTS SCT045CB BKN250
     FM250000 18004KT P6SM FEW050 SCT250
     FM250700 22003KT P6SM FEW004
     FM251500 23006KT P6SM SCT030=

USA.gov is the U.S. government's official web portal to all federal, state and local government web resources and services.